createdAt,value
2023-02-09T00:00:14.065Z,26.10
2023-02-09T00:02:44.515Z,24.88
2023-02-09T00:05:13.825Z,26.95
2023-02-09T00:07:42.862Z,25.75
2023-02-09T00:10:12.182Z,25.10
2023-02-09T00:13:00.334Z,24.75
2023-02-09T00:15:29.369Z,25.48
2023-02-09T00:17:58.650Z,25.48
2023-02-09T00:20:27.687Z,26.42
2023-02-09T00:22:56.750Z,25.90
2023-02-09T00:25:25.809Z,26.17
2023-02-09T00:27:56.252Z,27.38
2023-02-09T00:30:26.131Z,27.48
2023-02-09T00:32:55.212Z,27.75
2023-02-09T00:35:24.260Z,26.77
2023-02-09T00:37:53.320Z,26.50
2023-02-09T00:40:22.708Z,27.27
2023-02-09T00:42:51.935Z,26.50
2023-02-09T00:45:22.352Z,27.00
2023-02-09T00:47:51.426Z,26.38
2023-02-09T00:50:20.699Z,28.95
2023-02-09T00:52:50.470Z,27.13
2023-02-09T00:55:20.172Z,28.85
2023-02-09T00:57:49.211Z,26.83
2023-02-09T01:00:19.715Z,27.33
2023-02-09T01:02:50.142Z,27.17
2023-02-09T01:05:19.906Z,27.98
2023-02-09T01:07:48.991Z,26.70
2023-02-09T01:10:18.056Z,26.15
2023-02-09T01:12:47.199Z,26.48
2023-02-09T01:15:16.401Z,24.50
2023-02-09T01:17:46.383Z,24.10
2023-02-09T01:20:17.714Z,26.23
2023-02-09T01:22:46.832Z,27.05
2023-02-09T01:25:15.944Z,24.40
2023-02-09T01:27:44.991Z,25.55
2023-02-09T01:30:15.210Z,24.95
2023-02-09T01:32:44.387Z,25.35
2023-02-09T01:35:13.676Z,24.83
2023-02-09T01:37:44.116Z,25.30
2023-02-09T01:40:13.924Z,24.73
2023-02-09T01:42:43.987Z,24.17
2023-02-09T01:45:29.682Z,23.20
2023-02-09T01:48:03.496Z,24.27
2023-02-09T01:50:37.397Z,24.48
2023-02-09T01:53:09.340Z,23.48
2023-02-09T01:55:45.504Z,25.80
2023-02-09T01:58:18.582Z,18.70
2023-02-09T02:00:48.729Z,25.35
2023-02-09T02:03:22.690Z,25.08
2023-02-09T02:05:56.684Z,25.15
2023-02-09T02:08:32.575Z,24.67
2023-02-09T02:11:01.962Z,25.53
2023-02-09T02:13:31.006Z,25.77
2023-02-09T02:16:08.019Z,27.42
2023-02-09T02:18:58.755Z,25.63
2023-02-09T02:22:18.031Z,25.42
2023-02-09T02:25:23.489Z,27.02
2023-02-09T02:28:11.267Z,28.42
2023-02-09T02:30:59.635Z,27.95
2023-02-09T02:33:42.723Z,26.88
2023-02-09T02:36:19.412Z,24.35
2023-02-09T02:41:53.789Z,24.48
2023-02-09T02:44:24.637Z,22.58
2023-02-09T02:46:58.954Z,23.92
2023-02-09T02:49:40.210Z,23.42
2023-02-09T02:52:12.263Z,24.42
2023-02-09T02:54:46.588Z,24.02
2023-02-09T02:57:22.492Z,24.98
2023-02-09T02:59:56.756Z,19.63
2023-02-09T03:02:33.632Z,26.25
2023-02-09T03:05:06.782Z,26.70
2023-02-09T03:07:35.943Z,25.10
2023-02-09T03:10:27.835Z,26.80
2023-02-09T03:13:13.137Z,25.15
2023-02-09T03:15:55.461Z,24.67
2023-02-09T03:18:31.958Z,26.65
2023-02-09T03:21:12.476Z,26.42
2023-02-09T03:23:48.470Z,24.55
2023-02-09T03:26:23.739Z,20.63
2023-02-09T03:28:57.256Z,25.00
2023-02-09T03:31:28.201Z,25.05
2023-02-09T03:33:58.441Z,25.38
2023-02-09T03:36:34.311Z,25.60
2023-02-09T03:39:03.373Z,25.05
2023-02-09T03:41:32.574Z,26.30
2023-02-09T03:44:19.320Z,24.77
2023-02-09T03:46:48.432Z,26.50
2023-02-09T03:49:17.484Z,26.60
2023-02-09T03:51:48.226Z,26.67
2023-02-09T03:54:17.274Z,28.55
2023-02-09T03:56:46.562Z,26.67
2023-02-09T03:59:15.675Z,25.15
2023-02-09T04:01:44.851Z,27.15
2023-02-09T04:04:14.056Z,27.30
2023-02-09T04:06:43.092Z,28.80
2023-02-09T04:09:14.061Z,26.48
2023-02-09T04:11:43.443Z,26.95
2023-02-09T04:14:12.641Z,27.27
2023-02-09T04:16:41.812Z,27.65
2023-02-09T04:19:12.404Z,25.20
2023-02-09T04:21:41.497Z,25.35
2023-02-09T04:24:10.996Z,27.02
2023-02-09T04:26:41.429Z,26.30
2023-02-09T04:29:10.529Z,26.23
2023-02-09T04:31:39.698Z,25.77
2023-02-09T04:34:08.885Z,26.30
2023-02-09T04:36:37.961Z,26.70
2023-02-09T04:39:07.059Z,27.10
2023-02-09T04:41:36.235Z,28.38
2023-02-09T04:44:06.910Z,29.23
2023-02-09T04:46:36.116Z,29.90
2023-02-09T04:49:05.277Z,27.35
2023-02-09T04:51:34.476Z,27.67
2023-02-09T04:54:03.589Z,27.33
2023-02-09T04:56:32.719Z,29.33
2023-02-09T04:59:19.302Z,28.85
2023-02-09T05:01:49.783Z,24.48
2023-02-09T05:04:18.806Z,27.00
2023-02-09T05:06:47.869Z,27.88
2023-02-09T05:09:16.955Z,28.65
2023-02-09T05:11:46.030Z,27.67
2023-02-09T05:14:15.380Z,27.42
2023-02-09T05:16:44.490Z,27.83
2023-02-09T05:19:16.152Z,26.38
2023-02-09T05:21:45.207Z,27.70
2023-02-09T05:24:14.423Z,26.92
2023-02-09T05:26:43.497Z,29.00
2023-02-09T05:29:12.570Z,28.83
2023-02-09T05:31:42.803Z,26.88
2023-02-09T05:34:12.026Z,27.92
2023-02-09T05:36:42.482Z,26.55
2023-02-09T05:39:11.507Z,27.42
2023-02-09T05:41:58.207Z,26.70
2023-02-09T05:44:27.266Z,27.60
2023-02-09T05:46:56.327Z,25.80
2023-02-09T05:49:25.472Z,28.27
2023-02-09T05:51:55.886Z,27.13
2023-02-09T05:54:25.176Z,26.73
2023-02-09T05:56:54.270Z,29.05
2023-02-09T05:59:23.362Z,30.88
2023-02-09T06:01:52.744Z,28.92
2023-02-09T06:04:22.232Z,27.73
2023-02-09T06:06:51.294Z,27.95
2023-02-09T06:09:22.211Z,27.23
2023-02-09T06:11:51.544Z,25.58
2023-02-09T06:14:20.953Z,27.13
2023-02-09T06:16:50.019Z,26.52
2023-02-09T06:19:22.518Z,27.90
2023-02-09T06:21:51.620Z,27.67
2023-02-09T06:24:22.072Z,26.08
2023-02-09T06:26:51.103Z,26.77
2023-02-09T06:29:20.252Z,27.02
2023-02-09T06:31:49.432Z,27.10
2023-02-09T06:34:18.629Z,27.92
2023-02-09T06:36:47.752Z,28.30
2023-02-09T06:39:16.854Z,27.63
2023-02-09T06:41:47.279Z,28.30
2023-02-09T06:44:16.403Z,27.20
2023-02-09T06:46:45.388Z,28.02
2023-02-09T06:49:14.733Z,26.90
2023-02-09T06:51:43.920Z,25.88
2023-02-09T06:54:13.032Z,29.58
2023-02-09T06:56:42.083Z,27.75
2023-02-09T06:59:12.630Z,26.75
2023-02-09T07:01:41.883Z,27.55
2023-02-09T07:04:10.946Z,27.67
2023-02-09T07:06:39.961Z,27.65
2023-02-09T07:09:09.192Z,26.88
2023-02-09T07:11:38.329Z,27.52
2023-02-09T07:14:07.402Z,28.23
2023-02-09T07:16:37.881Z,27.23
2023-02-09T07:19:06.953Z,27.17
2023-02-09T07:21:35.998Z,27.80
2023-02-09T07:24:05.731Z,27.95
2023-02-09T07:26:34.857Z,28.27
2023-02-09T07:29:03.917Z,27.38
2023-02-09T07:31:33.138Z,25.85
2023-02-09T07:34:03.618Z,28.20
2023-02-09T07:36:32.733Z,28.45
2023-02-09T07:39:02.337Z,26.90
2023-02-09T07:41:31.456Z,28.23
2023-02-09T07:44:00.508Z,27.85
2023-02-09T07:46:29.641Z,26.80
2023-02-09T07:49:01.232Z,27.90
2023-02-09T07:51:34.075Z,29.13
2023-02-09T07:54:04.634Z,26.52
2023-02-09T07:56:39.403Z,22.33
2023-02-09T07:59:09.314Z,28.60
2023-02-09T08:01:38.473Z,28.38
2023-02-09T08:04:07.619Z,29.35
2023-02-09T08:06:43.189Z,28.60
2023-02-09T08:09:14.924Z,30.95
2023-02-09T08:11:49.907Z,28.50
2023-02-09T08:14:25.091Z,27.67
2023-02-09T08:17:18.967Z,29.00
2023-02-09T08:19:51.372Z,27.63
2023-02-09T08:22:23.534Z,28.00
2023-02-09T08:24:53.147Z,28.30
2023-02-09T08:27:23.331Z,28.13
2023-02-09T08:29:52.677Z,28.13
2023-02-09T08:32:21.806Z,26.98
2023-02-09T08:34:50.923Z,26.17
2023-02-09T08:37:21.389Z,27.70
2023-02-09T08:39:50.513Z,26.98
2023-02-09T08:42:19.725Z,28.80
2023-02-09T08:44:48.803Z,27.52
2023-02-09T08:47:17.982Z,26.33
2023-02-09T08:49:47.041Z,26.70
2023-02-09T08:52:16.653Z,26.73
2023-02-09T08:54:47.123Z,26.23
2023-02-09T08:57:16.225Z,24.83
2023-02-09T08:59:45.282Z,25.15
2023-02-09T09:02:14.375Z,24.15
2023-02-09T09:04:43.465Z,23.90
2023-02-09T09:07:12.524Z,24.60
2023-02-09T09:09:41.675Z,23.95
2023-02-09T09:12:12.196Z,23.65
2023-02-09T09:14:41.774Z,22.75
2023-02-09T09:17:10.895Z,23.67
2023-02-09T09:19:40.175Z,23.27
2023-02-09T09:22:09.276Z,23.95
2023-02-09T09:24:40.791Z,23.10
2023-02-09T09:27:11.820Z,23.17
2023-02-09T09:29:40.968Z,23.55
2023-02-09T09:32:13.898Z,21.50
2023-02-09T09:34:43.514Z,22.05
2023-02-09T09:37:12.583Z,20.23
2023-02-09T09:39:41.610Z,21.27
2023-02-09T09:42:25.536Z,21.40
2023-02-09T09:44:55.695Z,19.13
2023-02-09T09:47:35.815Z,18.65
2023-02-09T09:50:07.673Z,17.92
2023-02-09T09:52:41.445Z,18.05
2023-02-09T09:55:19.227Z,15.70
2023-02-09T09:57:50.833Z,13.10
2023-02-09T10:00:24.453Z,14.48
2023-02-09T10:02:53.803Z,14.60
2023-02-09T10:05:26.711Z,14.73
2023-02-09T10:08:02.334Z,14.27
2023-02-09T10:10:44.990Z,14.30
2023-02-09T10:13:24.815Z,14.38
2023-02-09T10:15:55.875Z,14.15
2023-02-09T10:18:26.627Z,14.50
2023-02-09T10:21:02.451Z,14.90
2023-02-09T10:23:41.677Z,14.15
2023-02-09T10:26:24.993Z,13.80
2023-02-09T10:28:58.178Z,13.45
2023-02-09T10:31:33.293Z,14.15
2023-02-09T10:34:11.775Z,13.75
2023-02-09T10:36:49.730Z,12.65
2023-02-09T10:39:22.449Z,13.35
2023-02-09T10:41:54.056Z,12.98
2023-02-09T10:44:28.036Z,13.18
2023-02-09T10:47:12.052Z,13.48
2023-02-09T10:49:41.126Z,13.10
2023-02-09T10:52:19.390Z,13.23
2023-02-09T10:54:52.015Z,13.43
2023-02-09T10:57:25.283Z,13.02
2023-02-09T10:59:59.624Z,13.38
2023-02-09T11:02:38.856Z,12.77
2023-02-09T11:05:29.752Z,12.95
2023-02-09T11:08:07.723Z,13.68
2023-02-09T11:10:42.570Z,13.40
2023-02-09T11:13:25.030Z,14.07
2023-02-09T11:16:44.449Z,13.73
2023-02-09T11:19:31.573Z,12.95
2023-02-09T11:22:12.774Z,13.98
2023-02-09T11:24:54.160Z,13.35
2023-02-09T11:27:42.651Z,14.05
2023-02-09T11:30:38.893Z,13.27
2023-02-09T11:33:17.534Z,12.95
2023-02-09T11:35:59.423Z,13.73
2023-02-09T11:38:40.310Z,14.02
2023-02-09T11:41:34.365Z,12.80
2023-02-09T11:44:07.683Z,14.30
2023-02-09T11:46:38.614Z,14.60
2023-02-09T11:49:19.256Z,13.68
2023-02-09T11:51:50.851Z,14.05
2023-02-09T11:54:24.565Z,14.38
2023-02-09T11:57:02.704Z,14.15
2023-02-09T11:59:39.933Z,13.70
2023-02-09T12:05:00.404Z,13.30
2023-02-09T12:07:37.408Z,13.70
2023-02-09T12:10:20.659Z,14.05
2023-02-09T12:12:55.885Z,13.45
2023-02-09T12:15:29.014Z,13.43
2023-02-09T12:18:05.088Z,13.15
2023-02-09T12:20:53.999Z,13.35
2023-02-09T12:23:31.659Z,13.07
2023-02-09T12:26:01.839Z,12.02
2023-02-09T12:28:44.964Z,12.77
2023-02-09T12:31:25.736Z,12.75
2023-02-09T12:34:24.959Z,11.90
2023-02-09T12:37:30.350Z,11.52
2023-02-09T12:40:24.055Z,10.70
2023-02-09T12:43:29.435Z,11.38
2023-02-09T12:46:16.357Z,11.25
2023-02-09T12:49:10.511Z,11.37
2023-02-09T12:52:09.639Z,10.43
2023-02-09T12:55:01.036Z,11.90
2023-02-09T12:57:54.223Z,11.15
2023-02-09T13:00:56.403Z,11.38
2023-02-09T13:03:27.698Z,11.50
2023-02-09T13:06:03.132Z,11.80
2023-02-09T13:08:39.966Z,11.20
2023-02-09T13:11:26.801Z,11.70
2023-02-09T13:13:59.086Z,11.90
2023-02-09T13:17:11.850Z,11.07
2023-02-09T13:20:06.081Z,10.30
2023-02-09T13:22:51.888Z,11.63
2023-02-09T13:25:32.505Z,10.30
2023-02-09T13:28:15.852Z,10.57
2023-02-09T13:30:45.803Z,11.60
2023-02-09T13:33:33.615Z,11.05
2023-02-09T13:38:54.948Z,11.52
2023-02-09T13:41:33.092Z,11.82
2023-02-09T13:44:04.110Z,11.35
2023-02-09T13:46:35.422Z,10.80
2023-02-09T13:49:13.261Z,10.93
2023-02-09T13:51:42.621Z,10.50
2023-02-09T13:54:20.361Z,10.45
2023-02-09T13:56:49.617Z,9.80
2023-02-09T13:59:20.169Z,11.05
2023-02-09T14:01:50.525Z,10.85
2023-02-09T14:04:25.499Z,10.13
2023-02-09T14:07:03.194Z,10.32
2023-02-09T14:09:43.319Z,9.85
2023-02-09T14:12:18.788Z,10.25
2023-02-09T14:15:15.820Z,9.98
2023-02-09T14:17:53.496Z,10.80
2023-02-09T14:20:25.910Z,9.32
2023-02-09T14:23:00.694Z,8.88
2023-02-09T14:25:31.911Z,9.68
2023-02-09T14:28:01.384Z,8.93
2023-02-09T14:30:36.375Z,8.80
2023-02-09T14:33:06.249Z,8.68
2023-02-09T14:35:40.541Z,9.23
2023-02-09T14:38:38.635Z,9.93
2023-02-09T14:41:30.501Z,9.55
2023-02-09T14:44:02.087Z,9.82
2023-02-09T14:46:49.656Z,9.60
2023-02-09T14:49:19.658Z,9.90
2023-02-09T14:51:51.336Z,9.45
2023-02-09T14:54:26.590Z,8.88
2023-02-09T14:56:58.741Z,8.90
2023-02-09T14:59:28.301Z,9.68
2023-02-09T15:01:59.127Z,9.23
2023-02-09T15:04:33.194Z,8.77
2023-02-09T15:07:05.102Z,9.30
2023-02-09T15:09:38.216Z,8.60
2023-02-09T15:12:08.945Z,8.52
2023-02-09T15:14:44.707Z,9.15
2023-02-09T15:17:19.001Z,8.00
2023-02-09T15:19:49.046Z,9.48
2023-02-09T15:22:19.095Z,8.85
2023-02-09T15:24:52.287Z,8.43
2023-02-09T15:27:30.167Z,8.68
2023-02-09T15:30:02.305Z,8.85
2023-02-09T15:32:34.691Z,9.85
2023-02-09T15:35:05.242Z,8.55
2023-02-09T15:37:38.299Z,8.77
2023-02-09T15:40:43.938Z,9.32
2023-02-09T15:43:34.285Z,9.10
2023-02-09T15:46:21.741Z,9.88
2023-02-09T15:48:52.360Z,9.48
2023-02-09T15:51:22.798Z,8.93
2023-02-09T15:53:54.259Z,10.80
2023-02-09T15:56:23.763Z,9.07
2023-02-09T15:58:53.432Z,10.10
2023-02-09T16:01:22.501Z,9.70
2023-02-09T16:03:55.238Z,10.68
2023-02-09T16:06:26.058Z,10.13
2023-02-09T16:08:57.911Z,10.20
2023-02-09T16:11:33.009Z,9.18
2023-02-09T16:14:02.616Z,9.45
2023-02-09T16:16:32.217Z,9.27
2023-02-09T16:19:02.800Z,9.73
2023-02-09T16:21:36.172Z,9.63
2023-02-09T16:24:07.576Z,10.55
2023-02-09T16:26:37.048Z,10.38
2023-02-09T16:29:12.281Z,10.13
2023-02-09T16:31:42.344Z,11.32
2023-02-09T16:34:15.761Z,9.77
2023-02-09T16:36:46.395Z,9.80
2023-02-09T16:39:20.634Z,9.60
2023-02-09T16:41:53.873Z,10.73
2023-02-09T16:44:26.035Z,11.75
2023-02-09T16:46:59.791Z,10.48
2023-02-09T16:49:38.976Z,12.27
2023-02-09T16:52:16.943Z,12.48
2023-02-09T16:54:49.302Z,13.50
2023-02-09T16:57:23.238Z,15.40
2023-02-09T16:59:53.555Z,17.42
2023-02-09T17:02:39.858Z,16.20
2023-02-09T17:05:20.380Z,18.02
2023-02-09T17:07:55.677Z,15.13
2023-02-09T17:10:28.956Z,17.58
2023-02-09T17:12:58.674Z,17.65
2023-02-09T17:15:31.652Z,16.52
2023-02-09T17:18:06.600Z,18.10
2023-02-09T17:20:42.672Z,15.55
2023-02-09T17:23:17.627Z,11.93
2023-02-09T17:25:48.157Z,11.63
2023-02-09T17:28:18.199Z,11.13
2023-02-09T17:30:49.634Z,11.40
2023-02-09T17:33:24.759Z,14.85
2023-02-09T17:36:24.709Z,15.57
2023-02-09T17:38:48.050Z,15.60
2023-02-09T17:41:23.162Z,14.70
2023-02-09T17:43:53.798Z,14.23
2023-02-09T17:46:23.832Z,13.30
2023-02-09T17:48:53.255Z,13.45
2023-02-09T17:51:30.800Z,13.18
2023-02-09T17:53:59.964Z,12.38
2023-02-09T17:56:29.101Z,11.73
2023-02-09T17:59:03.098Z,12.35
2023-02-09T18:01:33.456Z,13.10
2023-02-09T18:04:03.573Z,14.95
2023-02-09T18:06:37.548Z,16.63
2023-02-09T18:09:09.651Z,16.85
2023-02-09T18:12:00.044Z,18.02
2023-02-09T18:14:31.440Z,18.15
2023-02-09T18:17:00.943Z,22.40
2023-02-09T18:19:30.140Z,21.90
2023-02-09T18:22:02.988Z,12.00
2023-02-09T18:24:36.429Z,10.27
2023-02-09T18:27:08.132Z,11.75
2023-02-09T18:29:37.344Z,11.48
2023-02-09T18:32:07.696Z,11.65
2023-02-09T18:34:37.402Z,12.73
2023-02-09T18:37:08.304Z,13.35
2023-02-09T18:39:40.776Z,12.55
2023-02-09T18:42:14.704Z,14.00
2023-02-09T18:44:44.267Z,14.70
2023-02-09T18:47:14.120Z,17.00
2023-02-09T18:49:43.331Z,17.80
2023-02-09T18:52:18.865Z,16.52
2023-02-09T18:54:48.101Z,17.40
2023-02-09T18:57:18.354Z,21.58
2023-02-09T18:59:50.058Z,16.33
2023-02-09T19:02:19.687Z,16.15
2023-02-09T19:04:48.984Z,14.52
2023-02-09T19:07:19.456Z,14.10
2023-02-09T19:09:48.525Z,14.10
2023-02-09T19:12:17.602Z,13.48
2023-02-09T19:14:47.924Z,12.88
2023-02-09T19:17:20.333Z,13.07
2023-02-09T19:19:50.232Z,13.43
2023-02-09T19:22:22.853Z,13.80
2023-02-09T19:24:56.113Z,12.70
2023-02-09T19:27:27.589Z,12.40
2023-02-09T19:29:58.823Z,12.88
2023-02-09T19:32:28.988Z,14.93
2023-02-09T19:34:58.486Z,15.05
2023-02-09T19:37:30.311Z,15.82
2023-02-09T19:40:07.332Z,17.35
2023-02-09T19:42:36.976Z,23.65
2023-02-09T19:45:07.249Z,17.30
2023-02-09T19:47:38.304Z,18.33
2023-02-09T19:50:08.025Z,19.30
2023-02-09T19:52:40.837Z,19.25
2023-02-09T19:55:12.103Z,19.15
2023-02-09T19:57:42.530Z,19.00
2023-02-09T20:00:15.805Z,18.48
2023-02-09T20:02:44.893Z,19.95
2023-02-09T20:05:14.183Z,19.52
2023-02-09T20:07:44.844Z,19.20
2023-02-09T20:10:14.193Z,19.60
2023-02-09T20:15:18.805Z,21.60
2023-02-09T20:20:22.114Z,20.95
2023-02-09T20:22:52.846Z,20.75
2023-02-09T20:25:22.152Z,19.80
2023-02-09T20:27:52.206Z,20.58
2023-02-09T20:30:21.534Z,21.38
2023-02-09T20:32:50.759Z,18.52
2023-02-09T20:35:20.080Z,19.02
2023-02-09T20:37:49.546Z,18.48
2023-02-09T20:40:20.604Z,20.75
2023-02-09T20:43:08.494Z,20.52
2023-02-09T20:45:55.112Z,17.75
2023-02-09T20:48:24.307Z,18.83
2023-02-09T20:50:55.088Z,17.98
2023-02-09T20:53:24.492Z,17.98
2023-02-09T20:55:54.983Z,17.30
2023-02-09T20:58:24.086Z,19.30
2023-02-09T21:00:53.839Z,19.08
2023-02-09T21:03:23.950Z,19.15
2023-02-09T21:05:53.233Z,18.10
2023-02-09T21:08:22.895Z,18.30
2023-02-09T21:10:58.361Z,15.65
2023-02-09T21:13:27.508Z,17.38
2023-02-09T21:15:56.971Z,18.98
2023-02-09T21:18:26.111Z,20.08
2023-02-09T21:20:55.647Z,19.17
2023-02-09T21:23:24.762Z,20.83
2023-02-09T21:26:03.660Z,19.00
2023-02-09T21:28:33.295Z,18.98
2023-02-09T21:31:02.550Z,18.77
2023-02-09T21:33:31.643Z,21.02
2023-02-09T21:36:00.716Z,21.50
2023-02-09T21:38:29.854Z,19.40
2023-02-09T21:40:58.897Z,21.95
2023-02-09T21:43:29.364Z,21.23
2023-02-09T21:45:58.450Z,22.17
2023-02-09T21:48:27.587Z,21.80
2023-02-09T21:50:56.928Z,20.45
2023-02-09T21:53:26.283Z,20.40
2023-02-09T21:55:55.431Z,20.10
2023-02-09T21:58:24.520Z,20.92
2023-02-09T22:00:59.908Z,19.70
2023-02-09T22:03:28.982Z,17.98
2023-02-09T22:05:58.165Z,17.38
2023-02-09T22:08:27.866Z,17.70
2023-02-09T22:11:00.301Z,16.70
2023-02-09T22:13:29.611Z,16.65
2023-02-09T22:16:00.558Z,17.98
2023-02-09T22:18:29.681Z,20.17
2023-02-09T22:21:00.514Z,19.85
2023-02-09T22:23:29.658Z,20.42
2023-02-09T22:26:02.594Z,21.25
2023-02-09T22:28:34.496Z,18.33
2023-02-09T22:31:13.328Z,20.83
2023-02-09T22:33:43.155Z,20.40
2023-02-09T22:36:16.206Z,20.65
2023-02-09T22:38:46.076Z,25.20
2023-02-09T22:41:22.376Z,24.58
2023-02-09T22:43:52.654Z,16.13
2023-02-09T22:46:25.620Z,21.17
2023-02-09T22:48:57.008Z,22.13
2023-02-09T22:51:28.607Z,19.85
2023-02-09T22:53:58.346Z,20.02
2023-02-09T22:56:28.435Z,20.75
2023-02-09T22:58:59.163Z,19.63
2023-02-09T23:01:30.852Z,18.98
2023-02-09T23:04:00.454Z,17.42
2023-02-09T23:06:30.809Z,17.13
2023-02-09T23:09:04.287Z,17.70
2023-02-09T23:11:33.523Z,17.92
2023-02-09T23:14:11.169Z,19.10
2023-02-09T23:16:43.554Z,17.88
2023-02-09T23:19:15.089Z,20.30
2023-02-09T23:21:46.536Z,18.77
2023-02-09T23:24:17.529Z,21.20
2023-02-09T23:26:46.671Z,20.48
2023-02-09T23:29:17.586Z,18.45
2023-02-09T23:31:48.919Z,21.58
2023-02-09T23:34:21.118Z,37.03
2023-02-09T23:36:50.357Z,25.05
2023-02-09T23:39:22.405Z,22.92
2023-02-09T23:41:51.543Z,22.40
2023-02-09T23:44:20.753Z,29.95
2023-02-09T23:46:51.283Z,29.58
2023-02-09T23:49:20.394Z,24.50
2023-02-09T23:51:49.541Z,19.83
2023-02-09T23:54:18.611Z,18.90
2023-02-09T23:56:49.755Z,17.50
2023-02-09T23:59:18.837Z,19.23
